Time;durP1;ratioP1;P1;durP2;ratioP2;P2;SDS_P1;SDS_P2;PMS_P1;PMS_P2;Temp;Humidity;BMP_temperature;BMP_pressure;BME280_temperature;BME280_humidity;BME280_pressure;Samples;Min_cycle;Max_cycle;Signal;HPM_P1;HPM_P2
2020/12/03 00:01:32;;;;;;;39.95;19.70;;;;;;;;;;5013118;28;20030;-66
2020/12/03 00:03:59;;;;;;;35.83;18.52;;;;;;;;;;5013261;28;20060;-56
2020/12/03 00:06:32;;;;;;;37.42;19.63;;;;;;;;;;5012658;28;20048;-61
2020/12/03 00:09:06;;;;;;;37.50;19.27;;;;;;;;;;5013069;28;20030;-66
2020/12/03 00:11:33;;;;;;;38.35;19.95;;;;;;;;;;5011736;28;20034;-66
2020/12/03 00:13:59;;;;;;;38.92;19.15;;;;;;;;;;5013343;28;20492;-62
2020/12/03 00:16:28;;;;;;;38.83;20.77;;;;;;;;;;5012999;28;20485;-63
2020/12/03 00:18:55;;;;;;;37.80;19.48;;;;;;;;;;5013156;28;20034;-56
2020/12/03 00:21:39;;;;;;;39.10;20.05;;;;;;;;;;5013263;28;20053;-58
2020/12/03 00:24:06;;;;;;;38.10;19.65;;;;;;;;;;5006782;28;20120;-58
2020/12/03 00:26:32;;;;;;;37.33;19.88;;;;;;;;;;5012906;28;20041;-66
2020/12/03 00:28:59;;;;;;;38.75;19.92;;;;;;;;;;5012468;28;20431;-64
2020/12/03 00:31:25;;;;;;;36.92;19.20;;;;;;;;;;5012229;28;20038;-61
2020/12/03 00:33:52;;;;;;;39.00;20.27;;;;;;;;;;5009532;28;20018;-58
2020/12/03 00:36:18;;;;;;;38.42;19.67;;;;;;;;;;5012601;28;20477;-58
2020/12/03 00:38:46;;;;;;;39.22;20.75;;;;;;;;;;5012699;28;20100;-55
2020/12/03 00:41:12;;;;;;;37.53;19.90;;;;;;;;;;5012782;28;20065;-51
2020/12/03 00:43:38;;;;;;;38.30;19.50;;;;;;;;;;5012534;28;20018;-57
2020/12/03 00:46:04;;;;;;;40.20;19.88;;;;;;;;;;5012531;28;20061;-57
2020/12/03 00:48:30;;;;;;;40.40;19.60;;;;;;;;;;5012403;28;20060;-55
2020/12/03 00:50:56;;;;;;;36.80;18.27;;;;;;;;;;5012729;28;20028;-57
2020/12/03 00:53:22;;;;;;;33.83;19.25;;;;;;;;;;5012380;28;20029;-65
2020/12/03 00:55:48;;;;;;;37.63;19.80;;;;;;;;;;5012144;28;20023;-66
2020/12/03 00:58:14;;;;;;;37.90;18.98;;;;;;;;;;5004637;28;20030;-66
2020/12/03 01:00:41;;;;;;;37.55;19.88;;;;;;;;;;5011364;28;20030;-60
2020/12/03 01:03:07;;;;;;;37.53;19.80;;;;;;;;;;5011820;28;20030;-66
2020/12/03 01:05:33;;;;;;;37.05;18.88;;;;;;;;;;5011585;28;20049;-67
2020/12/03 01:08:00;;;;;;;37.20;19.75;;;;;;;;;;5011396;28;20390;-55
2020/12/03 01:10:28;;;;;;;38.58;19.77;;;;;;;;;;5011504;28;20056;-59
2020/12/03 01:12:54;;;;;;;36.45;19.40;;;;;;;;;;5011322;28;20500;-65
2020/12/03 01:15:20;;;;;;;35.63;18.88;;;;;;;;;;5011398;28;20097;-59
2020/12/03 01:17:46;;;;;;;39.63;19.27;;;;;;;;;;5011180;28;20026;-55
2020/12/03 01:20:15;;;;;;;40.05;20.35;;;;;;;;;;5011635;28;20049;-66
2020/12/03 01:22:41;;;;;;;38.00;18.80;;;;;;;;;;5011153;28;20049;-59
2020/12/03 01:25:07;;;;;;;40.40;21.45;;;;;;;;;;5011739;28;20037;-68
2020/12/03 01:27:33;;;;;;;37.80;19.92;;;;;;;;;;5010990;28;20389;-55
2020/12/03 01:29:59;;;;;;;41.92;20.95;;;;;;;;;;5011222;28;20425;-61
2020/12/03 01:32:25;;;;;;;38.55;19.70;;;;;;;;;;5011556;28;20037;-56
2020/12/03 01:34:51;;;;;;;39.05;19.60;;;;;;;;;;5011500;28;20026;-55
2020/12/03 01:37:18;;;;;;;37.63;19.08;;;;;;;;;;5011371;28;20021;-59
2020/12/03 01:39:44;;;;;;;39.17;19.38;;;;;;;;;;5011571;28;20030;-56
2020/12/03 01:42:11;;;;;;;39.00;19.95;;;;;;;;;;5011388;28;20112;-55
2020/12/03 01:44:39;;;;;;;37.75;20.23;;;;;;;;;;5011464;28;20493;-57
2020/12/03 01:47:06;;;;;;;35.50;19.45;;;;;;;;;;5011325;28;20033;-68
2020/12/03 01:49:34;;;;;;;37.22;19.55;;;;;;;;;;5010425;28;20033;-69
2020/12/03 01:52:00;;;;;;;38.55;20.52;;;;;;;;;;5011106;28;20109;-68
2020/12/03 01:54:27;;;;;;;35.97;18.80;;;;;;;;;;5011069;28;20026;-64
2020/12/03 01:56:57;;;;;;;36.10;19.15;;;;;;;;;;5010684;28;20536;-64
2020/12/03 01:59:25;;;;;;;33.65;18.98;;;;;;;;;;5010264;28;20028;-52
2020/12/03 02:01:51;;;;;;;35.67;19.15;;;;;;;;;;5010521;28;20053;-68
2020/12/03 02:04:17;;;;;;;36.25;18.60;;;;;;;;;;5010337;28;20046;-68
2020/12/03 02:06:43;;;;;;;37.33;19.50;;;;;;;;;;5010328;28;20026;-71
2020/12/03 02:09:11;;;;;;;37.00;19.10;;;;;;;;;;5010843;28;20029;-58
2020/12/03 02:11:37;;;;;;;39.35;20.33;;;;;;;;;;5010152;28;20038;-67
2020/12/03 02:14:06;;;;;;;36.17;19.23;;;;;;;;;;5010044;28;20018;-68
2020/12/03 02:16:34;;;;;;;37.70;20.50;;;;;;;;;;5010141;28;20076;-62
2020/12/03 02:19:00;;;;;;;36.40;19.27;;;;;;;;;;5008976;28;20058;-70
2020/12/03 02:21:26;;;;;;;35.00;18.80;;;;;;;;;;5009182;28;20014;-70
2020/12/03 02:23:52;;;;;;;36.78;18.90;;;;;;;;;;5010114;28;20022;-66
2020/12/03 02:26:18;;;;;;;37.08;18.60;;;;;;;;;;5010964;28;20034;-64
2020/12/03 02:28:45;;;;;;;35.55;17.92;;;;;;;;;;5011025;28;20100;-69
2020/12/03 02:31:11;;;;;;;33.83;18.02;;;;;;;;;;5011311;28;20386;-69
2020/12/03 02:33:38;;;;;;;36.72;18.77;;;;;;;;;;5011352;28;20481;-68
2020/12/03 02:36:04;;;;;;;32.63;17.67;;;;;;;;;;5011252;28;20049;-67
2020/12/03 02:38:30;;;;;;;33.78;17.20;;;;;;;;;;5011353;28;20072;-64
2020/12/03 02:40:59;;;;;;;34.08;17.52;;;;;;;;;;5008971;28;20025;-63
2020/12/03 02:43:25;;;;;;;34.20;17.92;;;;;;;;;;5014938;28;20083;-56
2020/12/03 02:45:51;;;;;;;32.38;17.25;;;;;;;;;;5014548;28;20040;-69
2020/12/03 02:48:18;;;;;;;35.25;18.10;;;;;;;;;;5014835;28;20018;-66
2020/12/03 02:50:44;;;;;;;34.47;17.48;;;;;;;;;;5014405;28;20055;-69
2020/12/03 02:53:10;;;;;;;34.20;17.80;;;;;;;;;;5014943;28;20025;-58
2020/12/03 02:55:36;;;;;;;32.53;17.38;;;;;;;;;;5014533;28;20041;-54
2020/12/03 02:58:02;;;;;;;33.67;17.80;;;;;;;;;;5014732;28;20069;-73
2020/12/03 03:00:28;;;;;;;30.15;15.93;;;;;;;;;;5014144;28;20029;-56
2020/12/03 03:02:54;;;;;;;32.72;16.63;;;;;;;;;;5014071;28;20037;-56
2020/12/03 03:05:20;;;;;;;28.85;16.23;;;;;;;;;;5013818;28;20528;-59
2020/12/03 03:07:46;;;;;;;32.95;16.95;;;;;;;;;;5012766;28;20034;-55
2020/12/03 03:10:14;;;;;;;31.48;16.25;;;;;;;;;;5012649;28;20021;-59
2020/12/03 03:12:40;;;;;;;27.98;15.80;;;;;;;;;;5013566;28;20025;-56
2020/12/03 03:15:06;;;;;;;32.95;16.55;;;;;;;;;;5012737;28;20347;-57
2020/12/03 03:17:32;;;;;;;30.88;16.02;;;;;;;;;;5013886;28;20033;-57
2020/12/03 03:19:58;;;;;;;29.83;16.50;;;;;;;;;;5013969;28;20044;-56
2020/12/03 03:22:24;;;;;;;29.15;15.07;;;;;;;;;;5013942;28;20461;-56
2020/12/03 03:24:50;;;;;;;31.13;15.43;;;;;;;;;;5013686;28;20155;-61
2020/12/03 03:27:16;;;;;;;33.90;17.25;;;;;;;;;;5014028;28;20064;-72
2020/12/03 03:29:42;;;;;;;30.35;16.33;;;;;;;;;;5014048;28;20057;-67
2020/12/03 03:32:08;;;;;;;29.30;15.43;;;;;;;;;;5008814;28;20037;-61
2020/12/03 03:34:34;;;;;;;29.13;16.02;;;;;;;;;;5005917;28;20037;-70
2020/12/03 03:37:00;;;;;;;28.77;14.90;;;;;;;;;;5013260;28;20021;-71
2020/12/03 03:39:26;;;;;;;27.90;14.57;;;;;;;;;;5014071;28;20029;-62
2020/12/03 03:41:54;;;;;;;26.45;14.45;;;;;;;;;;5013889;28;20026;-55
2020/12/03 03:44:21;;;;;;;29.40;15.27;;;;;;;;;;5014163;28;20022;-56
2020/12/03 03:46:48;;;;;;;29.45;15.35;;;;;;;;;;5013981;28;20033;-61
2020/12/03 03:49:14;;;;;;;28.63;15.07;;;;;;;;;;5013965;28;20688;-72
2020/12/03 03:51:40;;;;;;;25.02;13.65;;;;;;;;;;5012945;28;20113;-70
2020/12/03 03:54:06;;;;;;;29.17;15.00;;;;;;;;;;5013302;28;20052;-72
2020/12/03 03:56:32;;;;;;;29.20;15.27;;;;;;;;;;5013516;28;20026;-57
2020/12/03 03:58:58;;;;;;;26.52;14.65;;;;;;;;;;5013313;28;20049;-72
2020/12/03 04:01:25;;;;;;;30.40;15.65;;;;;;;;;;5013336;28;20765;-72
2020/12/03 04:03:51;;;;;;;27.30;14.25;;;;;;;;;;5012490;28;20046;-57
2020/12/03 04:06:17;;;;;;;28.42;14.65;;;;;;;;;;5013172;28;20041;-71
2020/12/03 04:08:43;;;;;;;28.67;15.25;;;;;;;;;;5013451;28;20101;-63
2020/12/03 04:11:09;;;;;;;28.00;14.85;;;;;;;;;;5013639;28;20029;-70
2020/12/03 04:13:35;;;;;;;28.65;14.93;;;;;;;;;;5013346;28;20022;-54
2020/12/03 04:16:01;;;;;;;28.45;14.65;;;;;;;;;;5012947;28;20087;-70
2020/12/03 04:18:27;;;;;;;26.17;13.65;;;;;;;;;;5013469;28;20022;-67
2020/12/03 04:20:55;;;;;;;25.67;14.23;;;;;;;;;;5012904;28;20087;-72
2020/12/03 04:23:21;;;;;;;26.88;13.63;;;;;;;;;;5012234;28;20164;-69
2020/12/03 04:25:47;;;;;;;28.10;14.27;;;;;;;;;;5012810;28;20056;-56
2020/12/03 04:28:13;;;;;;;25.20;13.85;;;;;;;;;;5012769;28;20067;-55
2020/12/03 04:30:39;;;;;;;26.10;14.32;;;;;;;;;;5012181;28;20038;-62
2020/12/03 04:33:05;;;;;;;27.45;13.55;;;;;;;;;;5012909;28;20030;-56
2020/12/03 04:35:31;;;;;;;25.33;13.65;;;;;;;;;;5012598;28;20033;-66
2020/12/03 04:37:57;;;;;;;26.13;13.40;;;;;;;;;;5012252;28;20022;-73
2020/12/03 04:40:32;;;;;;;25.17;13.52;;;;;;;;;;5012579;28;20093;-70
2020/12/03 04:43:00;;;;;;;26.75;13.55;;;;;;;;;;5012730;28;20429;-56
2020/12/03 04:45:41;;;;;;;25.17;13.27;;;;;;;;;;5012301;28;20030;-67
2020/12/03 04:48:17;;;;;;;24.88;12.95;;;;;;;;;;5012406;28;20030;-57
2020/12/03 04:51:03;;;;;;;24.60;13.10;;;;;;;;;;5012129;28;20028;-63
2020/12/03 04:53:32;;;;;;;26.23;13.40;;;;;;;;;;5009370;28;20045;-73
2020/12/03 04:56:01;;;;;;;26.15;13.18;;;;;;;;;;5009710;28;20474;-73
2020/12/03 04:58:46;;;;;;;26.95;13.60;;;;;;;;;;5009943;28;20038;-72
2020/12/03 05:01:27;;;;;;;28.45;13.68;;;;;;;;;;5009306;28;20053;-64
2020/12/03 05:04:02;;;;;;;28.58;14.20;;;;;;;;;;5008448;28;20058;-72
2020/12/03 05:06:34;;;;;;;24.85;13.85;;;;;;;;;;5009445;28;20041;-60
2020/12/03 05:09:00;;;;;;;24.80;13.25;;;;;;;;;;5005336;28;20041;-67
2020/12/03 05:11:30;;;;;;;26.20;13.80;;;;;;;;;;5009836;28;20061;-69
2020/12/03 05:14:16;;;;;;;26.15;13.93;;;;;;;;;;5010238;28;20157;-68
2020/12/03 05:17:02;;;;;;;27.55;14.85;;;;;;;;;;5009731;28;20462;-73
2020/12/03 05:19:37;;;;;;;26.58;14.60;;;;;;;;;;4912875;29;20032;-68
2020/12/03 05:22:10;;;;;;;29.83;15.50;;;;;;;;;;4912748;29;20039;-73
2020/12/03 05:24:36;;;;;;;26.30;14.43;;;;;;;;;;4915380;29;20618;-72
2020/12/03 05:27:02;;;;;;;33.95;15.85;;;;;;;;;;4915366;29;20055;-71
2020/12/03 05:29:28;;;;;;;29.95;14.18;;;;;;;;;;4919214;29;20045;-74
2020/12/03 05:31:54;;;;;;;26.92;14.52;;;;;;;;;;4910075;29;20058;-69
2020/12/03 05:34:22;;;;;;;27.35;14.38;;;;;;;;;;4913145;29;20526;-65
2020/12/03 05:36:56;;;;;;;27.65;14.52;;;;;;;;;;4912742;29;20096;-62
2020/12/03 05:39:27;;;;;;;35.83;17.08;;;;;;;;;;4913055;29;20033;-63
2020/12/03 05:41:56;;;;;;;50.97;23.65;;;;;;;;;;4913440;29;20054;-68
2020/12/03 05:44:22;;;;;;;43.13;20.27;;;;;;;;;;4911003;29;20396;-66
2020/12/03 05:46:49;;;;;;;28.45;15.45;;;;;;;;;;4913431;29;20119;-70
2020/12/03 05:49:20;;;;;;;30.50;15.75;;;;;;;;;;4917030;29;20400;-69
2020/12/03 05:51:46;;;;;;;45.38;21.55;;;;;;;;;;4910629;29;20085;-66
2020/12/03 05:54:12;;;;;;;31.98;16.20;;;;;;;;;;4912922;29;20028;-63
2020/12/03 05:56:38;;;;;;;35.53;16.45;;;;;;;;;;4957371;28;20121;-67
2020/12/03 05:59:14;;;;;;;29.42;14.98;;;;;;;;;;5006907;28;20029;-66
2020/12/03 06:01:48;;;;;;;28.80;15.30;;;;;;;;;;5011577;28;20038;-65
2020/12/03 06:04:17;;;;;;;31.45;16.85;;;;;;;;;;5011535;28;20049;-65
2020/12/03 06:07:02;;;;;;;27.95;15.18;;;;;;;;;;5011784;28;20030;-69
2020/12/03 06:09:31;;;;;;;26.67;14.27;;;;;;;;;;5010702;28;20065;-68
2020/12/03 06:12:15;;;;;;;28.17;14.63;;;;;;;;;;5011799;28;20133;-61
2020/12/03 06:14:49;;;;;;;33.53;17.95;;;;;;;;;;5003978;28;20104;-67
2020/12/03 06:17:34;;;;;;;30.00;15.75;;;;;;;;;;5015560;28;20022;-67
2020/12/03 06:20:00;;;;;;;26.85;14.65;;;;;;;;;;5008319;28;20026;-73
2020/12/03 06:22:48;;;;;;;32.67;16.45;;;;;;;;;;5015348;28;20493;-72
2020/12/03 06:25:35;;;;;;;27.27;14.93;;;;;;;;;;5014215;28;20486;-67
2020/12/03 06:28:06;;;;;;;28.52;14.80;;;;;;;;;;5015568;28;20030;-71
2020/12/03 06:30:37;;;;;;;25.42;14.70;;;;;;;;;;5015432;28;20037;-67
2020/12/03 06:33:15;;;;;;;28.25;14.60;;;;;;;;;;5015441;28;20384;-71
2020/12/03 06:36:04;;;;;;;26.17;14.35;;;;;;;;;;5015223;28;20498;-72
2020/12/03 06:38:53;;;;;;;28.60;15.60;;;;;;;;;;5015383;28;20164;-71
2020/12/03 06:41:26;;;;;;;26.48;14.27;;;;;;;;;;5012719;28;20391;-69
2020/12/03 06:43:56;;;;;;;25.50;13.73;;;;;;;;;;5013012;28;20034;-59
2020/12/03 06:46:43;;;;;;;26.13;14.30;;;;;;;;;;5012915;28;20057;-59
2020/12/03 06:49:27;;;;;;;26.20;14.23;;;;;;;;;;5012645;28;20029;-60
2020/12/03 06:52:02;;;;;;;24.65;14.13;;;;;;;;;;5012654;28;20084;-60
2020/12/03 06:54:28;;;;;;;23.70;13.95;;;;;;;;;;5012230;28;20057;-69
2020/12/03 06:57:06;;;;;;;24.83;13.60;;;;;;;;;;5012562;28;20621;-66
2020/12/03 06:59:50;;;;;;;26.13;14.10;;;;;;;;;;5012779;28;20038;-65
2020/12/03 07:02:29;;;;;;;23.85;13.75;;;;;;;;;;5012142;28;20041;-63
2020/12/03 07:05:13;;;;;;;25.42;16.40;;;;;;;;;;5012521;28;20594;-68
2020/12/03 07:07:48;;;;;;;24.67;13.63;;;;;;;;;;5012626;28;20045;-68
2020/12/03 07:10:43;;;;;;;22.70;13.23;;;;;;;;;;5012541;28;20034;-64
2020/12/03 07:13:27;;;;;;;27.48;15.90;;;;;;;;;;4915789;29;20077;-70
2020/12/03 07:16:13;;;;;;;22.75;13.07;;;;;;;;;;4915926;29;20126;-69
2020/12/03 07:18:49;;;;;;;23.80;13.52;;;;;;;;;;4811472;29;20415;-71
2020/12/03 07:21:34;;;;;;;28.42;15.30;;;;;;;;;;4805029;29;20038;-73
2020/12/03 07:24:06;;;;;;;26.42;14.63;;;;;;;;;;4804808;29;20071;-71
2020/12/03 07:26:50;;;;;;;27.13;15.27;;;;;;;;;;4803882;29;20050;-70
2020/12/03 07:29:19;;;;;;;28.42;15.88;;;;;;;;;;4804889;29;20115;-61
2020/12/03 07:31:50;;;;;;;29.63;15.18;;;;;;;;;;4804664;29;20071;-70
2020/12/03 07:34:37;;;;;;;31.27;16.17;;;;;;;;;;4805000;29;20039;-65
2020/12/03 07:37:03;;;;;;;29.05;15.93;;;;;;;;;;4804416;29;20035;-56
2020/12/03 07:39:35;;;;;;;28.73;16.23;;;;;;;;;;4804533;29;20031;-56
2020/12/03 07:42:10;;;;;;;28.50;15.90;;;;;;;;;;4804340;29;20031;-71
2020/12/03 07:44:39;;;;;;;31.63;15.65;;;;;;;;;;4804435;29;20047;-71
2020/12/03 07:47:25;;;;;;;26.52;15.30;;;;;;;;;;4804178;29;20035;-67
2020/12/03 07:49:55;;;;;;;27.55;15.43;;;;;;;;;;4874380;29;20044;-72
2020/12/03 07:52:22;;;;;;;26.75;14.77;;;;;;;;;;4915027;29;20176;-60
2020/12/03 07:54:48;;;;;;;27.25;14.73;;;;;;;;;;4926310;28;20036;-56
2020/12/03 07:57:24;;;;;;;27.75;14.18;;;;;;;;;;5012459;28;20036;-71
2020/12/03 07:59:50;;;;;;;25.48;14.23;;;;;;;;;;5014065;28;20378;-62
2020/12/03 08:02:36;;;;;;;26.95;14.80;;;;;;;;;;5013158;28;20397;-71
2020/12/03 08:05:22;;;;;;;26.17;14.27;;;;;;;;;;5012526;28;20132;-59
2020/12/03 08:07:49;;;;;;;24.50;13.73;;;;;;;;;;5013146;28;20500;-64
2020/12/03 08:10:33;;;;;;;25.48;14.38;;;;;;;;;;5013365;28;20392;-71
2020/12/03 08:13:05;;;;;;;24.90;13.88;;;;;;;;;;5012496;28;20105;-69
2020/12/03 08:15:35;;;;;;;24.33;14.18;;;;;;;;;;5012559;28;20041;-59
2020/12/03 08:18:01;;;;;;;26.90;14.32;;;;;;;;;;5012514;28;20034;-69
2020/12/03 08:20:42;;;;;;;25.88;14.05;;;;;;;;;;5013131;28;20030;-60
2020/12/03 08:23:11;;;;;;;28.52;14.93;;;;;;;;;;5012783;28;20033;-61
2020/12/03 08:25:42;;;;;;;26.55;14.55;;;;;;;;;;5013370;28;20392;-68
2020/12/03 08:28:17;;;;;;;29.80;15.23;;;;;;;;;;5013039;28;20064;-70
2020/12/03 08:30:52;;;;;;;24.80;14.80;;;;;;;;;;5013002;28;20251;-71
2020/12/03 08:33:31;;;;;;;29.98;16.73;;;;;;;;;;5012707;28;20040;-66
2020/12/03 08:35:58;;;;;;;27.95;16.08;;;;;;;;;;5013077;28;20106;-70
2020/12/03 08:38:27;;;;;;;29.10;15.85;;;;;;;;;;5012671;28;20508;-62
2020/12/03 08:40:56;;;;;;;30.02;16.58;;;;;;;;;;5012845;28;20029;-70
2020/12/03 08:43:23;;;;;;;28.70;15.52;;;;;;;;;;5012980;28;20496;-66
2020/12/03 08:45:53;;;;;;;27.95;15.73;;;;;;;;;;5012740;28;20541;-65
2020/12/03 08:48:26;;;;;;;28.15;16.23;;;;;;;;;;5013125;28;20474;-53
2020/12/03 08:50:59;;;;;;;28.05;16.05;;;;;;;;;;5012684;28;20029;-53
2020/12/03 08:53:27;;;;;;;27.95;15.43;;;;;;;;;;5010764;28;20520;-63
2020/12/03 08:55:53;;;;;;;28.55;15.57;;;;;;;;;;5012549;28;20014;-62
2020/12/03 08:58:21;;;;;;;26.90;15.30;;;;;;;;;;5012626;28;20470;-59
2020/12/03 09:00:48;;;;;;;29.48;16.30;;;;;;;;;;5012414;28;20120;-53
2020/12/03 09:03:15;;;;;;;30.92;16.02;;;;;;;;;;5012175;28;20058;-56
2020/12/03 09:05:44;;;;;;;28.25;16.10;;;;;;;;;;5012239;28;20065;-56
2020/12/03 09:08:17;;;;;;;29.48;16.58;;;;;;;;;;5012343;28;20053;-65
2020/12/03 09:10:43;;;;;;;30.25;16.75;;;;;;;;;;5012260;28;20026;-65
2020/12/03 09:13:10;;;;;;;29.42;15.73;;;;;;;;;;5012555;28;20105;-62
2020/12/03 09:15:36;;;;;;;26.30;14.90;;;;;;;;;;5011986;28;20077;-62
2020/12/03 09:18:05;;;;;;;27.35;14.50;;;;;;;;;;5012657;28;20056;-61
2020/12/03 09:20:31;;;;;;;26.77;14.60;;;;;;;;;;5012445;28;20034;-53
2020/12/03 09:22:57;;;;;;;25.70;14.75;;;;;;;;;;5011989;28;20026;-52
2020/12/03 09:25:23;;;;;;;29.30;16.15;;;;;;;;;;5010925;28;20049;-60
2020/12/03 09:27:50;;;;;;;27.30;15.45;;;;;;;;;;5011574;28;20029;-53
2020/12/03 09:30:28;;;;;;;25.42;14.80;;;;;;;;;;5012448;28;20022;-60
2020/12/03 09:32:57;;;;;;;26.85;14.80;;;;;;;;;;5012301;28;20568;-54
2020/12/03 09:35:23;;;;;;;30.45;15.82;;;;;;;;;;5011540;28;20049;-53
2020/12/03 09:37:50;;;;;;;26.80;15.65;;;;;;;;;;5011946;28;20026;-56
2020/12/03 09:40:16;;;;;;;27.48;15.57;;;;;;;;;;5012241;28;20100;-62
2020/12/03 09:42:46;;;;;;;26.40;15.48;;;;;;;;;;5012176;28;20462;-53
2020/12/03 09:45:14;;;;;;;24.25;15.15;;;;;;;;;;5011790;28;20029;-55
2020/12/03 09:47:44;;;;;;;28.10;15.63;;;;;;;;;;5012099;28;20029;-53
2020/12/03 09:50:11;;;;;;;26.55;15.30;;;;;;;;;;5013920;28;20044;-52
2020/12/03 09:52:40;;;;;;;27.00;14.80;;;;;;;;;;5015154;28;20406;-52
2020/12/03 09:55:14;;;;;;;27.25;16.08;;;;;;;;;;5015929;28;20156;-53
2020/12/03 09:57:40;;;;;;;28.83;16.02;;;;;;;;;;5016023;28;20060;-53
2020/12/03 10:00:07;;;;;;;28.73;16.52;;;;;;;;;;5015746;28;20029;-53
2020/12/03 10:02:47;;;;;;;29.38;16.75;;;;;;;;;;5015946;28;20040;-53
2020/12/03 10:05:14;;;;;;;28.35;16.55;;;;;;;;;;5015116;28;20053;-58
2020/12/03 10:07:49;;;;;;;29.73;16.27;;;;;;;;;;5015457;28;20026;-53
2020/12/03 10:10:35;;;;;;;31.58;16.60;;;;;;;;;;5015405;28;20045;-53
2020/12/03 10:13:07;;;;;;;28.58;16.30;;;;;;;;;;5015639;28;20033;-53
2020/12/03 10:15:33;;;;;;;33.90;18.40;;;;;;;;;;5015587;28;20124;-53
2020/12/03 10:17:59;;;;;;;27.15;16.38;;;;;;;;;;5015375;28;20017;-54
2020/12/03 10:20:25;;;;;;;32.75;17.73;;;;;;;;;;5015349;28;20496;-55
2020/12/03 10:23:10;;;;;;;30.33;17.63;;;;;;;;;;5015679;28;20018;-53
2020/12/03 10:25:39;;;;;;;31.65;17.83;;;;;;;;;;5015292;28;20037;-54
2020/12/03 10:28:12;;;;;;;28.67;16.38;;;;;;;;;;5015301;28;20014;-57
2020/12/03 10:30:39;;;;;;;31.48;17.70;;;;;;;;;;5015561;28;20034;-53
2020/12/03 10:33:09;;;;;;;31.70;16.88;;;;;;;;;;5014630;28;20537;-69
2020/12/03 10:35:40;;;;;;;29.00;16.77;;;;;;;;;;5015510;28;20367;-63
2020/12/03 10:38:10;;;;;;;30.05;16.75;;;;;;;;;;5015163;28;20109;-63
2020/12/03 10:40:36;;;;;;;28.05;15.82;;;;;;;;;;5014569;28;20490;-61
2020/12/03 10:43:02;;;;;;;25.88;15.38;;;;;;;;;;5014522;28;20022;-65
2020/12/03 10:45:33;;;;;;;26.23;15.20;;;;;;;;;;5015069;28;20116;-62
2020/12/03 10:48:18;;;;;;;21.38;10.90;;;;;;;;;;5015036;28;20022;-66
2020/12/03 10:50:47;;;;;;;24.58;14.10;;;;;;;;;;5015105;28;20040;-66
2020/12/03 10:53:16;;;;;;;26.55;15.05;;;;;;;;;;5014183;28;20048;-66
2020/12/03 10:55:43;;;;;;;27.00;15.27;;;;;;;;;;5014423;28;20057;-67
2020/12/03 10:58:11;;;;;;;28.23;15.57;;;;;;;;;;5013363;28;20052;-67
2020/12/03 11:00:37;;;;;;;27.10;15.75;;;;;;;;;;5014309;28;20105;-68
2020/12/03 11:03:08;;;;;;;28.73;15.02;;;;;;;;;;5014101;28;20026;-69
2020/12/03 11:05:34;;;;;;;27.05;15.68;;;;;;;;;;5013959;28;20120;-62
2020/12/03 11:08:01;;;;;;;25.80;14.98;;;;;;;;;;5014000;28;20026;-66
2020/12/03 11:10:28;;;;;;;27.23;15.02;;;;;;;;;;5013805;28;20030;-65
2020/12/03 11:12:58;;;;;;;24.65;14.95;;;;;;;;;;5014124;28;20057;-61
2020/12/03 11:15:28;;;;;;;29.33;15.70;;;;;;;;;;5012409;28;20104;-67
2020/12/03 11:18:01;;;;;;;29.58;16.10;;;;;;;;;;5012142;28;20041;-67
2020/12/03 11:20:30;;;;;;;28.02;14.95;;;;;;;;;;5013294;28;20042;-67
2020/12/03 11:23:04;;;;;;;26.17;15.55;;;;;;;;;;5013717;28;20478;-67
2020/12/03 11:25:31;;;;;;;27.70;15.38;;;;;;;;;;5013178;28;20018;-64
2020/12/03 11:28:03;;;;;;;29.13;15.30;;;;;;;;;;5014179;28;20473;-61
2020/12/03 11:30:31;;;;;;;28.42;15.65;;;;;;;;;;5013711;28;20054;-66
2020/12/03 11:32:57;;;;;;;26.95;15.43;;;;;;;;;;5013585;28;20386;-66
2020/12/03 11:35:24;;;;;;;25.75;15.20;;;;;;;;;;5014042;28;20034;-67
2020/12/03 11:37:51;;;;;;;27.60;15.98;;;;;;;;;;5012113;28;20385;-65
2020/12/03 11:40:22;;;;;;;25.90;15.48;;;;;;;;;;5013504;28;20021;-64
2020/12/03 11:42:57;;;;;;;28.13;15.88;;;;;;;;;;5013749;28;20457;-64
2020/12/03 11:50:37;;;;;;;30.85;15.63;;;;;;;;;;5012523;28;20033;-61
2020/12/03 11:53:05;;;;;;;30.17;15.70;;;;;;;;;;5013919;28;20299;-62
2020/12/03 11:55:31;;;;;;;31.17;17.40;;;;;;;;;;5014094;28;20021;-62
2020/12/03 11:58:04;;;;;;;28.98;16.42;;;;;;;;;;5013616;28;20034;-61
2020/12/03 12:00:31;;;;;;;28.58;16.30;;;;;;;;;;5013713;28;20022;-61
2020/12/03 12:02:58;;;;;;;26.95;15.20;;;;;;;;;;5013100;28;20641;-61
2020/12/03 12:05:37;;;;;;;26.58;15.30;;;;;;;;;;5012870;28;20053;-62
2020/12/03 12:10:45;;;;;;;26.17;15.32;;;;;;;;;;5013611;28;20061;-62
2020/12/03 12:13:14;;;;;;;26.00;15.88;;;;;;;;;;5013272;28;20032;-62
2020/12/03 12:15:40;;;;;;;23.52;14.05;;;;;;;;;;5013429;28;20022;-62
2020/12/03 12:18:06;;;;;;;23.80;13.80;;;;;;;;;;5012870;28;20029;-61
2020/12/03 12:20:32;;;;;;;23.85;13.85;;;;;;;;;;5013053;28;20030;-60
2020/12/03 12:22:58;;;;;;;24.45;14.70;;;;;;;;;;5012680;28;20038;-63
2020/12/03 12:25:24;;;;;;;26.50;14.70;;;;;;;;;;5012638;28;20105;-62
2020/12/03 12:27:50;;;;;;;26.58;14.90;;;;;;;;;;5012904;28;20025;-62
2020/12/03 12:30:16;;;;;;;27.23;14.05;;;;;;;;;;5012654;28;20052;-63
2020/12/03 12:32:42;;;;;;;24.50;13.23;;;;;;;;;;5012458;28;20065;-62
2020/12/03 12:35:08;;;;;;;21.95;13.18;;;;;;;;;;5013084;28;20101;-64
2020/12/03 12:37:34;;;;;;;26.60;13.93;;;;;;;;;;5012475;28;20033;-63
2020/12/03 12:40:00;;;;;;;23.67;14.25;;;;;;;;;;5012661;28;20061;-63
2020/12/03 12:42:28;;;;;;;26.67;14.45;;;;;;;;;;5012637;28;20393;-65
2020/12/03 12:44:54;;;;;;;23.38;14.15;;;;;;;;;;5012983;28;20053;-60
2020/12/03 12:47:20;;;;;;;26.85;14.82;;;;;;;;;;5012139;28;20103;-60
2020/12/03 12:49:46;;;;;;;25.27;14.73;;;;;;;;;;5012547;28;20087;-61
2020/12/03 12:52:12;;;;;;;26.65;14.95;;;;;;;;;;5012632;28;20035;-61
2020/12/03 12:54:38;;;;;;;28.55;14.63;;;;;;;;;;5012425;28;20029;-63
2020/12/03 12:57:05;;;;;;;24.85;15.13;;;;;;;;;;5011678;28;20752;-63
2020/12/03 12:59:31;;;;;;;27.23;14.40;;;;;;;;;;5012517;28;20029;-63
2020/12/03 13:01:57;;;;;;;26.15;15.75;;;;;;;;;;5012261;28;20022;-60
2020/12/03 13:04:23;;;;;;;27.20;15.00;;;;;;;;;;5012558;28;20073;-60
2020/12/03 13:06:54;;;;;;;31.50;17.08;;;;;;;;;;5012522;28;20405;-61
2020/12/03 13:09:20;;;;;;;33.17;17.67;;;;;;;;;;5012070;28;20034;-61
2020/12/03 13:11:47;;;;;;;29.40;15.70;;;;;;;;;;5012352;28;20468;-60
2020/12/03 13:14:13;;;;;;;27.75;16.13;;;;;;;;;;5012434;28;20064;-63
2020/12/03 13:16:39;;;;;;;28.35;16.23;;;;;;;;;;5012363;28;20030;-61
2020/12/03 13:19:07;;;;;;;32.38;17.42;;;;;;;;;;5012118;28;20120;-61
2020/12/03 13:21:33;;;;;;;40.70;21.35;;;;;;;;;;5012326;28;20014;-60
2020/12/03 13:24:00;;;;;;;30.30;17.30;;;;;;;;;;5011739;28;20638;-63
2020/12/03 13:26:26;;;;;;;40.28;21.25;;;;;;;;;;5011749;28;20033;-61
2020/12/03 13:28:52;;;;;;;40.88;21.73;;;;;;;;;;5012273;28;20049;-61
2020/12/03 13:31:19;;;;;;;49.78;25.55;;;;;;;;;;5012214;28;20060;-62
2020/12/03 13:33:45;;;;;;;71.82;32.88;;;;;;;;;;5012030;28;20033;-62
2020/12/03 13:36:11;;;;;;;67.18;32.17;;;;;;;;;;5012294;28;20022;-61
2020/12/03 13:38:37;;;;;;;53.42;25.85;;;;;;;;;;5012152;28;20022;-62
2020/12/03 13:41:03;;;;;;;55.75;28.90;;;;;;;;;;5012220;28;20058;-63
2020/12/03 13:43:30;;;;;;;55.28;25.88;;;;;;;;;;5012220;28;20377;-61
2020/12/03 13:45:57;;;;;;;54.72;25.95;;;;;;;;;;5010923;28;20493;-61
2020/12/03 13:48:23;;;;;;;53.75;27.15;;;;;;;;;;5012210;28;20168;-62
2020/12/03 13:50:50;;;;;;;43.63;22.42;;;;;;;;;;5012154;28;20084;-61
2020/12/03 13:53:16;;;;;;;54.30;24.40;;;;;;;;;;5012445;28;20018;-61
2020/12/03 13:55:42;;;;;;;48.08;25.23;;;;;;;;;;5011092;28;20508;-62
2020/12/03 13:58:08;;;;;;;31.80;18.45;;;;;;;;;;5012133;28;20050;-61
2020/12/03 14:00:34;;;;;;;33.58;15.18;;;;;;;;;;5012242;28;20030;-63
2020/12/03 14:03:00;;;;;;;28.35;18.23;;;;;;;;;;5011890;28;20026;-62
2020/12/03 14:05:26;;;;;;;24.98;15.07;;;;;;;;;;5011940;28;20493;-62
2020/12/03 14:07:52;;;;;;;27.55;15.52;;;;;;;;;;5011572;28;20449;-61
2020/12/03 14:10:18;;;;;;;25.50;15.30;;;;;;;;;;5011844;28;20462;-64
2020/12/03 14:12:44;;;;;;;24.40;14.90;;;;;;;;;;5012362;28;20056;-64
2020/12/03 14:15:11;;;;;;;29.00;16.33;;;;;;;;;;5012055;28;20384;-64
2020/12/03 14:17:37;;;;;;;30.98;20.25;;;;;;;;;;5010677;28;20050;-67
2020/12/03 14:20:07;;;;;;;27.42;15.82;;;;;;;;;;5012057;28;20033;-56
2020/12/03 14:22:33;;;;;;;28.67;16.55;;;;;;;;;;5011923;28;20030;-69
2020/12/03 14:24:59;;;;;;;25.75;14.68;;;;;;;;;;5011779;28;20061;-62
2020/12/03 14:27:25;;;;;;;28.88;16.73;;;;;;;;;;5010728;28;20042;-58
2020/12/03 14:29:52;;;;;;;28.25;16.25;;;;;;;;;;5009752;28;20087;-62
2020/12/03 14:32:18;;;;;;;26.40;15.18;;;;;;;;;;5011387;28;20113;-64
2020/12/03 14:34:44;;;;;;;28.88;16.45;;;;;;;;;;5010763;28;20068;-66
2020/12/03 14:37:12;;;;;;;28.50;16.60;;;;;;;;;;5014691;28;20022;-58